sensor_id;sensor_type;location;lat;lon;timestamp;pressure;altitude;pressure_sealevel;temperature;humidity
62600;BME280;48671;48.922;2.346;2023-01-28T00:01:26;102478.97;;;4.92;68.98
62600;BME280;48671;48.922;2.346;2023-01-28T00:03:51;102483.31;;;4.95;68.99
62600;BME280;48671;48.922;2.346;2023-01-28T00:06:17;102481.66;;;5.02;68.72
62600;BME280;48671;48.922;2.346;2023-01-28T00:08:43;102454.63;;;4.74;68.81
62600;BME280;48671;48.922;2.346;2023-01-28T00:11:11;102475.47;;;4.89;69.12
62600;BME280;48671;48.922;2.346;2023-01-28T00:13:37;102464.94;;;4.72;69.12
62600;BME280;48671;48.922;2.346;2023-01-28T00:16:05;102471.94;;;4.82;69.31
62600;BME280;48671;48.922;2.346;2023-01-28T00:18:32;102496.19;;;4.97;68.84
62600;BME280;48671;48.922;2.346;2023-01-28T00:23:29;102486.63;;;4.86;68.72
62600;BME280;48671;48.922;2.346;2023-01-28T00:26:07;102477.97;;;4.81;68.89
62600;BME280;48671;48.922;2.346;2023-01-28T00:28:32;102496.16;;;4.92;68.74
62600;BME280;48671;48.922;2.346;2023-01-28T00:31:05;102497.91;;;4.95;69.08
62600;BME280;48671;48.922;2.346;2023-01-28T00:33:30;102438.91;;;4.54;68.93
62600;BME280;48671;48.922;2.346;2023-01-28T00:35:57;102497.00;;;4.92;69.16
62600;BME280;48671;48.922;2.346;2023-01-28T00:38:23;102475.44;;;4.84;68.82
62600;BME280;48671;48.922;2.346;2023-01-28T00:40:48;102473.72;;;4.85;68.48
62600;BME280;48671;48.922;2.346;2023-01-28T00:43:13;102464.16;;;4.79;68.99
62600;BME280;48671;48.922;2.346;2023-01-28T00:45:39;102488.41;;;4.93;68.61
62600;BME280;48671;48.922;2.346;2023-01-28T00:48:05;102464.22;;;4.84;69.05
62600;BME280;48671;48.922;2.346;2023-01-28T00:50:30;102464.22;;;4.81;68.86
62600;BME280;48671;48.922;2.346;2023-01-28T00:52:56;102481.56;;;4.94;68.35
62600;BME280;48671;48.922;2.346;2023-01-28T00:55:21;102490.19;;;4.96;68.48
62600;BME280;48671;48.922;2.346;2023-01-28T00:57:46;102482.44;;;4.96;68.56
62600;BME280;48671;48.922;2.346;2023-01-28T01:00:12;102472.00;;;4.85;68.65
62600;BME280;48671;48.922;2.346;2023-01-28T01:02:38;102416.47;;;4.46;68.36
62600;BME280;48671;48.922;2.346;2023-01-28T01:05:03;102484.88;;;4.85;68.34
62600;BME280;48671;48.922;2.346;2023-01-28T01:07:30;102488.38;;;4.89;68.11
62600;BME280;48671;48.922;2.346;2023-01-28T01:10:18;102477.09;;;4.82;68.73
62600;BME280;48671;48.922;2.346;2023-01-28T01:12:48;102483.94;;;4.79;68.27
62600;BME280;48671;48.922;2.346;2023-01-28T01:15:14;102500.41;;;4.90;68.32
62600;BME280;48671;48.922;2.346;2023-01-28T01:17:42;102510.78;;;4.93;68.57
62600;BME280;48671;48.922;2.346;2023-01-28T01:20:12;102490.84;;;4.81;68.37
62600;BME280;48671;48.922;2.346;2023-01-28T01:22:37;102481.31;;;4.74;68.89
62600;BME280;48671;48.922;2.346;2023-01-28T01:25:03;102510.72;;;4.90;68.43
62600;BME280;48671;48.922;2.346;2023-01-28T01:27:30;102490.78;;;4.77;68.40
62600;BME280;48671;48.922;2.346;2023-01-28T01:29:55;102496.88;;;4.83;68.26
62600;BME280;48671;48.922;2.346;2023-01-28T01:32:21;102506.47;;;4.90;68.35
62600;BME280;48671;48.922;2.346;2023-01-28T01:34:47;102498.59;;;4.83;68.28
62600;BME280;48671;48.922;2.346;2023-01-28T01:37:13;102477.03;;;4.76;68.11
62600;BME280;48671;48.922;2.346;2023-01-28T01:39:38;102509.81;;;4.86;68.25
62600;BME280;48671;48.922;2.346;2023-01-28T01:42:03;102496.84;;;4.80;68.45
62600;BME280;48671;48.922;2.346;2023-01-28T01:44:51;102517.66;;;4.92;68.30
62600;BME280;48671;48.922;2.346;2023-01-28T01:47:23;102509.91;;;4.91;68.04
62600;BME280;48671;48.922;2.346;2023-01-28T01:49:49;102476.13;;;4.73;68.01
62600;BME280;48671;48.922;2.346;2023-01-28T01:52:18;102506.47;;;4.90;67.79
62600;BME280;48671;48.922;2.346;2023-01-28T01:54:49;102504.78;;;4.96;68.27
62600;BME280;48671;48.922;2.346;2023-01-28T01:57:22;102518.69;;;5.05;68.13
62600;BME280;48671;48.922;2.346;2023-01-28T01:59:49;102468.47;;;4.80;67.50
62600;BME280;48671;48.922;2.346;2023-01-28T02:02:14;102497.06;;;4.94;67.77
62600;BME280;48671;48.922;2.346;2023-01-28T02:04:42;102505.63;;;4.93;67.85
62600;BME280;48671;48.922;2.346;2023-01-28T02:07:10;102513.47;;;5.02;67.86
62600;BME280;48671;48.922;2.346;2023-01-28T02:09:36;102496.16;;;4.92;67.83
62600;BME280;48671;48.922;2.346;2023-01-28T02:12:12;102518.69;;;5.05;67.63
62600;BME280;48671;48.922;2.346;2023-01-28T02:14:43;102522.97;;;5.06;67.95
62600;BME280;48671;48.922;2.346;2023-01-28T02:17:10;102518.69;;;5.05;67.80
62600;BME280;48671;48.922;2.346;2023-01-28T02:20:11;102505.69;;;4.98;67.51
62600;BME280;48671;48.922;2.346;2023-01-28T02:25:40;102515.16;;;4.99;67.68
62600;BME280;48671;48.922;2.346;2023-01-28T02:39:07;102507.91;;;4.73;67.53
62600;BME280;48671;48.922;2.346;2023-01-28T02:41:40;102511.44;;;4.78;67.80
62600;BME280;48671;48.922;2.346;2023-01-28T02:44:08;102494.94;;;4.65;67.61
62600;BME280;48671;48.922;2.346;2023-01-28T02:46:35;102526.00;;;4.76;67.84
62600;BME280;48671;48.922;2.346;2023-01-28T02:49:24;102512.25;;;4.76;67.67
62600;BME280;48671;48.922;2.346;2023-01-28T02:54:55;102493.94;;;4.57;68.01
62600;BME280;48671;48.922;2.346;2023-01-28T02:57:44;102495.69;;;4.58;67.71
62600;BME280;48671;48.922;2.346;2023-01-28T03:00:43;102513.03;;;4.70;67.65
62600;BME280;48671;48.922;2.346;2023-01-28T03:03:21;102507.88;;;4.70;67.80
62600;BME280;48671;48.922;2.346;2023-01-28T03:05:55;102494.78;;;4.56;67.87
62600;BME280;48671;48.922;2.346;2023-01-28T03:08:49;102514.66;;;4.63;68.08
62600;BME280;48671;48.922;2.346;2023-01-28T03:11:38;102531.94;;;4.70;67.72
62600;BME280;48671;48.922;2.346;2023-01-28T03:14:24;102526.69;;;4.63;67.75
62600;BME280;48671;48.922;2.346;2023-01-28T03:17:16;102526.69;;;4.63;67.54
62600;BME280;48671;48.922;2.346;2023-01-28T03:20:01;102531.88;;;4.66;67.97
62600;BME280;48671;48.922;2.346;2023-01-28T03:22:50;102527.44;;;4.57;67.81
62600;BME280;48671;48.922;2.346;2023-01-28T03:25:37;102527.38;;;4.53;67.67
62600;BME280;48671;48.922;2.346;2023-01-28T03:28:24;102521.28;;;4.47;68.06
62600;BME280;48671;48.922;2.346;2023-01-28T03:31:12;102507.47;;;4.42;67.51
62600;BME280;48671;48.922;2.346;2023-01-28T03:33:57;102545.59;;;4.63;67.89
62600;BME280;48671;48.922;2.346;2023-01-28T03:36:44;102550.75;;;4.62;67.77
62600;BME280;48671;48.922;2.346;2023-01-28T03:39:20;102539.47;;;4.57;67.94
62600;BME280;48671;48.922;2.346;2023-01-28T03:42:01;102551.63;;;4.64;68.02
62600;BME280;48671;48.922;2.346;2023-01-28T03:44:27;102538.50;;;4.49;67.61
62600;BME280;48671;48.922;2.346;2023-01-28T03:47:11;102544.53;;;4.51;68.14
62600;BME280;48671;48.922;2.346;2023-01-28T03:49:41;102523.75;;;4.40;67.93
62600;BME280;48671;48.922;2.346;2023-01-28T03:52:09;102561.84;;;4.58;67.99
62600;BME280;48671;48.922;2.346;2023-01-28T03:54:36;102541.91;;;4.47;67.76
62600;BME280;48671;48.922;2.346;2023-01-28T03:57:01;102544.56;;;4.52;67.74
62600;BME280;48671;48.922;2.346;2023-01-28T03:59:26;102541.91;;;4.46;68.13
62600;BME280;48671;48.922;2.346;2023-01-28T04:01:52;102547.19;;;4.55;68.12
62600;BME280;48671;48.922;2.346;2023-01-28T04:04:17;102538.41;;;4.44;68.05
62600;BME280;48671;48.922;2.346;2023-01-28T04:06:52;102551.34;;;4.47;67.67
62600;BME280;48671;48.922;2.346;2023-01-28T04:09:19;102561.75;;;4.53;68.02
62600;BME280;48671;48.922;2.346;2023-01-28T04:11:44;102524.41;;;4.28;67.79
62600;BME280;48671;48.922;2.346;2023-01-28T04:14:09;102546.25;;;4.49;67.63
62600;BME280;48671;48.922;2.346;2023-01-28T04:16:35;102550.47;;;4.45;67.83
62600;BME280;48671;48.922;2.346;2023-01-28T04:19:00;102573.84;;;4.57;67.69
62600;BME280;48671;48.922;2.346;2023-01-28T04:21:25;102569.53;;;4.56;67.86
62600;BME280;48671;48.922;2.346;2023-01-28T04:23:51;102566.91;;;4.53;67.71
62600;BME280;48671;48.922;2.346;2023-01-28T04:26:16;102573.84;;;4.57;67.84
62600;BME280;48671;48.922;2.346;2023-01-28T04:28:41;102556.50;;;4.47;67.53
62600;BME280;48671;48.922;2.346;2023-01-28T04:31:07;102556.47;;;4.44;67.55
62600;BME280;48671;48.922;2.346;2023-01-28T04:33:32;102541.75;;;4.37;67.81
62600;BME280;48671;48.922;2.346;2023-01-28T04:35:57;102584.97;;;4.53;67.53
62600;BME280;48671;48.922;2.346;2023-01-28T04:38:23;102577.97;;;4.46;67.57
62600;BME280;48671;48.922;2.346;2023-01-28T04:40:50;102578.94;;;4.53;67.64
62600;BME280;48671;48.922;2.346;2023-01-28T04:43:15;102586.63;;;4.51;67.59
62600;BME280;48671;48.922;2.346;2023-01-28T04:45:40;102526.00;;;4.20;67.59
62600;BME280;48671;48.922;2.346;2023-01-28T04:48:06;102566.59;;;4.32;67.55
62600;BME280;48671;48.922;2.346;2023-01-28T04:50:31;102596.94;;;4.48;67.58
62600;BME280;48671;48.922;2.346;2023-01-28T04:52:56;102561.34;;;4.27;67.48
62600;BME280;48671;48.922;2.346;2023-01-28T04:55:22;102578.84;;;4.46;67.40
62600;BME280;48671;48.922;2.346;2023-01-28T04:57:47;102580.56;;;4.46;67.76
62600;BME280;48671;48.922;2.346;2023-01-28T05:00:13;102576.19;;;4.42;67.49
62600;BME280;48671;48.922;2.346;2023-01-28T05:02:38;102590.00;;;4.47;67.47
62600;BME280;48671;48.922;2.346;2023-01-28T05:05:04;102588.28;;;4.47;67.71
62600;BME280;48671;48.922;2.346;2023-01-28T05:07:33;102577.06;;;4.42;67.38
62600;BME280;48671;48.922;2.346;2023-01-28T05:09:58;102575.34;;;4.41;67.54
62600;BME280;48671;48.922;2.346;2023-01-28T05:12:23;102601.28;;;4.54;67.36
62600;BME280;48671;48.922;2.346;2023-01-28T05:14:49;102579.69;;;4.45;67.85
62600;BME280;48671;48.922;2.346;2023-01-28T05:17:14;102569.28;;;4.41;67.77
62600;BME280;48671;48.922;2.346;2023-01-28T05:19:39;102594.47;;;4.56;67.55
62600;BME280;48671;48.922;2.346;2023-01-28T05:22:04;102580.56;;;4.46;67.61
62600;BME280;48671;48.922;2.346;2023-01-28T05:24:30;102575.41;;;4.46;67.25
62600;BME280;48671;48.922;2.346;2023-01-28T05:26:55;102564.03;;;4.33;67.25
62600;BME280;48671;48.922;2.346;2023-01-28T05:29:21;102579.69;;;4.45;67.19
62600;BME280;48671;48.922;2.346;2023-01-28T05:31:46;102601.38;;;4.58;67.35
62600;BME280;48671;48.922;2.346;2023-01-28T05:34:12;102592.69;;;4.52;67.32
62600;BME280;48671;48.922;2.346;2023-01-28T05:36:37;102603.13;;;4.59;67.15
62600;BME280;48671;48.922;2.346;2023-01-28T05:39:05;102590.06;;;4.49;67.44
62600;BME280;48671;48.922;2.346;2023-01-28T05:41:30;102577.88;;;4.40;67.44
62600;BME280;48671;48.922;2.346;2023-01-28T05:43:56;102577.06;;;4.44;67.34
62600;BME280;48671;48.922;2.346;2023-01-28T05:46:21;102583.13;;;4.46;67.30
62600;BME280;48671;48.922;2.346;2023-01-28T05:48:47;102571.88;;;4.41;67.36
62600;BME280;48671;48.922;2.346;2023-01-28T05:51:12;102562.31;;;4.34;67.30
62600;BME280;48671;48.922;2.346;2023-01-28T05:53:37;102597.84;;;4.52;67.36
62600;BME280;48671;48.922;2.346;2023-01-28T05:56:03;102590.81;;;4.44;67.25
62600;BME280;48671;48.922;2.346;2023-01-28T05:58:28;102613.41;;;4.58;67.34
62600;BME280;48671;48.922;2.346;2023-01-28T06:00:56;102595.06;;;4.41;67.34
62600;BME280;48671;48.922;2.346;2023-01-28T06:03:21;102614.19;;;4.54;67.51
62600;BME280;48671;48.922;2.346;2023-01-28T06:05:47;102577.72;;;4.31;67.58
62600;BME280;48671;48.922;2.346;2023-01-28T06:08:12;102597.69;;;4.44;67.15
62600;BME280;48671;48.922;2.346;2023-01-28T06:10:37;102609.81;;;4.50;67.55
62600;BME280;48671;48.922;2.346;2023-01-28T06:13:03;102601.13;;;4.41;67.37
62600;BME280;48671;48.922;2.346;2023-01-28T06:15:28;102603.75;;;4.46;67.65
62600;BME280;48671;48.922;2.346;2023-01-28T06:17:53;102578.53;;;4.28;67.51
62600;BME280;48671;48.922;2.346;2023-01-28T06:20:19;102629.59;;;4.51;67.81
62600;BME280;48671;48.922;2.346;2023-01-28T06:22:44;102584.50;;;4.26;67.52
62600;BME280;48671;48.922;2.346;2023-01-28T06:25:09;102626.09;;;4.47;67.65
62600;BME280;48671;48.922;2.346;2023-01-28T06:27:35;102610.50;;;4.39;67.62
62600;BME280;48671;48.922;2.346;2023-01-28T06:30:00;102600.91;;;4.31;67.58
62600;BME280;48671;48.922;2.346;2023-01-28T06:32:26;102635.53;;;4.46;67.90
62600;BME280;48671;48.922;2.346;2023-01-28T06:34:52;102627.69;;;4.40;67.81
62600;BME280;48671;48.922;2.346;2023-01-28T06:37:17;102639.78;;;4.43;67.93
62600;BME280;48671;48.922;2.346;2023-01-28T06:39:42;102638.00;;;4.40;68.01
62600;BME280;48671;48.922;2.346;2023-01-28T06:42:08;102632.81;;;4.37;67.94
62600;BME280;48671;48.922;2.346;2023-01-28T06:44:33;102599.75;;;4.15;67.97
62600;BME280;48671;48.922;2.346;2023-01-28T06:46:58;102647.50;;;4.41;68.11
62600;BME280;48671;48.922;2.346;2023-01-28T06:49:24;102651.66;;;4.35;68.24
62600;BME280;48671;48.922;2.346;2023-01-28T06:51:49;102630.03;;;4.25;67.80
62600;BME280;48671;48.922;2.346;2023-01-28T06:54:15;102658.63;;;4.40;68.07
62600;BME280;48671;48.922;2.346;2023-01-28T06:56:40;102611.75;;;4.13;68.02
62600;BME280;48671;48.922;2.346;2023-01-28T06:59:06;102659.50;;;4.41;68.08
62600;BME280;48671;48.922;2.346;2023-01-28T07:01:32;102655.25;;;4.41;67.65
62600;BME280;48671;48.922;2.346;2023-01-28T07:03:57;102631.81;;;4.29;67.66
62600;BME280;48671;48.922;2.346;2023-01-28T07:06:23;102639.47;;;4.26;67.60
62600;BME280;48671;48.922;2.346;2023-01-28T07:08:48;102644.72;;;4.31;67.53
62600;BME280;48671;48.922;2.346;2023-01-28T07:11:14;102669.91;;;4.45;67.98
62600;BME280;48671;48.922;2.346;2023-01-28T07:13:40;102664.72;;;4.44;67.37
62600;BME280;48671;48.922;2.346;2023-01-28T07:16:06;102623.09;;;4.22;67.79
62600;BME280;48671;48.922;2.346;2023-01-28T07:18:31;102647.38;;;4.35;67.51
62600;BME280;48671;48.922;2.346;2023-01-28T07:20:56;102670.03;;;4.52;67.19
62600;BME280;48671;48.922;2.346;2023-01-28T07:23:22;102673.47;;;4.52;67.38
62600;BME280;48671;48.922;2.346;2023-01-28T07:25:47;102679.50;;;4.54;67.60
62600;BME280;48671;48.922;2.346;2023-01-28T07:28:13;102647.38;;;4.35;67.09
62600;BME280;48671;48.922;2.346;2023-01-28T07:30:38;102688.94;;;4.52;67.43
62600;BME280;48671;48.922;2.346;2023-01-28T07:33:04;102678.56;;;4.51;67.05
62600;BME280;48671;48.922;2.346;2023-01-28T07:35:30;102689.81;;;4.54;67.04
62600;BME280;48671;48.922;2.346;2023-01-28T07:37:58;102679.44;;;4.51;67.00
62600;BME280;48671;48.922;2.346;2023-01-28T07:40:24;102683.81;;;4.55;67.18
62600;BME280;48671;48.922;2.346;2023-01-28T07:42:50;102671.75;;;4.54;67.13
62600;BME280;48671;48.922;2.346;2023-01-28T07:45:16;102685.53;;;4.55;67.04
62600;BME280;48671;48.922;2.346;2023-01-28T07:47:42;102678.63;;;4.52;66.91
62600;BME280;48671;48.922;2.346;2023-01-28T07:50:09;102685.44;;;4.49;67.31
62600;BME280;48671;48.922;2.346;2023-01-28T07:52:36;102683.78;;;4.52;66.84
62600;BME280;48671;48.922;2.346;2023-01-28T07:55:09;102687.09;;;4.46;66.94
62600;BME280;48671;48.922;2.346;2023-01-28T07:57:34;102658.50;;;4.33;67.21
62600;BME280;48671;48.922;2.346;2023-01-28T07:59:59;102676.63;;;4.37;67.10
62600;BME280;48671;48.922;2.346;2023-01-28T08:02:24;102654.88;;;4.23;67.11
62600;BME280;48671;48.922;2.346;2023-01-28T08:04:50;102684.41;;;4.40;66.87
62600;BME280;48671;48.922;2.346;2023-01-28T08:07:15;102686.22;;;4.46;66.88
62600;BME280;48671;48.922;2.346;2023-01-28T08:09:40;102674.94;;;4.39;66.91
62600;BME280;48671;48.922;2.346;2023-01-28T08:12:06;102657.41;;;4.21;66.74
62600;BME280;48671;48.922;2.346;2023-01-28T08:14:31;102703.47;;;4.50;66.50
62600;BME280;48671;48.922;2.346;2023-01-28T08:16:56;102704.28;;;4.46;66.49
62600;BME280;48671;48.922;2.346;2023-01-28T08:19:22;102706.09;;;4.52;66.60
62600;BME280;48671;48.922;2.346;2023-01-28T08:21:47;102689.56;;;4.40;66.30
62600;BME280;48671;48.922;2.346;2023-01-28T08:24:12;102713.78;;;4.49;66.70
62600;BME280;48671;48.922;2.346;2023-01-28T08:26:38;102708.63;;;4.50;66.18
62600;BME280;48671;48.922;2.346;2023-01-28T08:29:03;102701.81;;;4.52;66.16
62600;BME280;48671;48.922;2.346;2023-01-28T08:31:30;102712.09;;;4.51;66.28
62600;BME280;48671;48.922;2.346;2023-01-28T08:33:55;102699.13;;;4.46;66.27
62600;BME280;48671;48.922;2.346;2023-01-28T08:36:20;102719.94;;;4.57;66.18
62600;BME280;48671;48.922;2.346;2023-01-28T08:38:46;102730.34;;;4.61;66.14
62600;BME280;48671;48.922;2.346;2023-01-28T08:41:15;102715.56;;;4.54;66.03
62600;BME280;48671;48.922;2.346;2023-01-28T08:43:40;102715.69;;;4.60;66.09
62600;BME280;48671;48.922;2.346;2023-01-28T08:46:05;102721.81;;;4.65;65.93
62600;BME280;48671;48.922;2.346;2023-01-28T08:48:31;102726.94;;;4.64;65.44
62600;BME280;48671;48.922;2.346;2023-01-28T08:50:57;102738.16;;;4.66;65.31
62600;BME280;48671;48.922;2.346;2023-01-28T08:53:23;102725.13;;;4.58;65.40
62600;BME280;48671;48.922;2.346;2023-01-28T08:55:48;102739.00;;;4.66;65.74
62600;BME280;48671;48.922;2.346;2023-01-28T08:58:15;102738.22;;;4.69;65.76
62600;BME280;48671;48.922;2.346;2023-01-28T09:00:41;102721.69;;;4.58;65.57
62600;BME280;48671;48.922;2.346;2023-01-28T09:03:07;102726.84;;;4.59;65.55
62600;BME280;48671;48.922;2.346;2023-01-28T09:05:33;102749.31;;;4.66;65.74
62600;BME280;48671;48.922;2.346;2023-01-28T09:08:04;102756.31;;;4.72;65.41
62600;BME280;48671;48.922;2.346;2023-01-28T09:10:30;102755.47;;;4.73;65.68
62600;BME280;48671;48.922;2.346;2023-01-28T09:12:55;102750.25;;;4.70;65.54
62600;BME280;48671;48.922;2.346;2023-01-28T09:15:20;102753.69;;;4.70;65.36
62600;BME280;48671;48.922;2.346;2023-01-28T09:17:46;102747.66;;;4.68;65.21
62600;BME280;48671;48.922;2.346;2023-01-28T09:20:11;102764.97;;;4.77;65.14
62600;BME280;48671;48.922;2.346;2023-01-28T09:22:37;102760.72;;;4.78;65.60
62600;BME280;48671;48.922;2.346;2023-01-28T09:25:03;102750.28;;;4.72;65.18
62600;BME280;48671;48.922;2.346;2023-01-28T09:27:28;102745.88;;;4.64;65.43
62600;BME280;48671;48.922;2.346;2023-01-28T09:29:54;102770.88;;;4.70;65.48
62600;BME280;48671;48.922;2.346;2023-01-28T09:32:19;102760.56;;;4.70;65.27
62600;BME280;48671;48.922;2.346;2023-01-28T09:34:44;102740.59;;;4.58;65.41
62600;BME280;48671;48.922;2.346;2023-01-28T09:37:10;102754.59;;;4.73;64.89
62600;BME280;48671;48.922;2.346;2023-01-28T09:39:36;102772.78;;;4.79;65.02
62600;BME280;48671;48.922;2.346;2023-01-28T09:45:22;102784.75;;;4.75;64.68
62600;BME280;48671;48.922;2.346;2023-01-28T09:47:58;102762.16;;;4.63;64.84
62600;BME280;48671;48.922;2.346;2023-01-28T09:53:04;102773.63;;;4.78;64.91
62600;BME280;48671;48.922;2.346;2023-01-28T09:55:33;102785.63;;;4.77;64.19
62600;BME280;48671;48.922;2.346;2023-01-28T09:58:00;102787.38;;;4.78;64.52
62600;BME280;48671;48.922;2.346;2023-01-28T10:11:04;102794.31;;;4.81;64.47
62600;BME280;48671;48.922;2.346;2023-01-28T10:16:30;102795.97;;;4.79;64.21
62600;BME280;48671;48.922;2.346;2023-01-28T10:19:09;102762.16;;;4.63;63.98
62600;BME280;48671;48.922;2.346;2023-01-28T10:21:42;102779.59;;;4.75;64.10
62600;BME280;48671;48.922;2.346;2023-01-28T10:24:32;102795.97;;;4.79;63.94
62600;BME280;48671;48.922;2.346;2023-01-28T10:27:01;102796.78;;;4.76;63.57
62600;BME280;48671;48.922;2.346;2023-01-28T10:29:29;102778.50;;;4.64;63.86
62600;BME280;48671;48.922;2.346;2023-01-28T10:32:06;102794.16;;;4.73;64.07
62600;BME280;48671;48.922;2.346;2023-01-28T10:34:39;102793.16;;;4.66;64.55
62600;BME280;48671;48.922;2.346;2023-01-28T10:37:08;102795.78;;;4.68;64.14
62600;BME280;48671;48.922;2.346;2023-01-28T10:39:36;102810.47;;;4.74;63.62
62600;BME280;48671;48.922;2.346;2023-01-28T10:42:14;102802.66;;;4.69;64.13
62600;BME280;48671;48.922;2.346;2023-01-28T10:44:43;102815.63;;;4.72;63.89
62600;BME280;48671;48.922;2.346;2023-01-28T10:47:22;102825.88;;;4.69;64.25
62600;BME280;48671;48.922;2.346;2023-01-28T10:49:55;102779.81;;;4.42;64.39
62600;BME280;48671;48.922;2.346;2023-01-28T10:52:23;102789.59;;;4.58;63.79
62600;BME280;48671;48.922;2.346;2023-01-28T10:55:01;102812.06;;;4.65;64.13
62600;BME280;48671;48.922;2.346;2023-01-28T10:57:27;102799.03;;;4.59;64.26
62600;BME280;48671;48.922;2.346;2023-01-28T10:59:53;102815.44;;;4.63;63.93
62600;BME280;48671;48.922;2.346;2023-01-28T11:02:28;102794.56;;;4.51;63.75
62600;BME280;48671;48.922;2.346;2023-01-28T11:05:19;102817.28;;;4.68;64.41
62600;BME280;48671;48.922;2.346;2023-01-28T11:07:45;102810.47;;;4.74;64.33
62600;BME280;48671;48.922;2.346;2023-01-28T11:10:31;102815.56;;;4.70;64.20
62600;BME280;48671;48.922;2.346;2023-01-28T11:12:59;102812.19;;;4.73;63.73
62600;BME280;48671;48.922;2.346;2023-01-28T11:15:25;102800.97;;;4.69;63.98
62600;BME280;48671;48.922;2.346;2023-01-28T11:18:03;102788.78;;;4.62;63.84
62600;BME280;48671;48.922;2.346;2023-01-28T11:20:35;102797.50;;;4.69;64.04
62600;BME280;48671;48.922;2.346;2023-01-28T11:23:02;102754.97;;;4.47;64.18
62600;BME280;48671;48.922;2.346;2023-01-28T11:25:35;102795.00;;;4.74;63.77
62600;BME280;48671;48.922;2.346;2023-01-28T11:28:04;102798.50;;;4.76;63.88
62600;BME280;48671;48.922;2.346;2023-01-28T11:30:35;102775.13;;;4.66;63.58
62600;BME280;48671;48.922;2.346;2023-01-28T11:33:20;102800.28;;;4.80;64.10
62600;BME280;48671;48.922;2.346;2023-01-28T11:35:55;102777.81;;;4.73;63.44
62600;BME280;48671;48.922;2.346;2023-01-28T11:38:23;102756.88;;;4.56;63.44
62600;BME280;48671;48.922;2.346;2023-01-28T11:40:53;102782.19;;;4.77;63.15
62600;BME280;48671;48.922;2.346;2023-01-28T11:43:21;102762.22;;;4.66;63.13
62600;BME280;48671;48.922;2.346;2023-01-28T11:48:30;102795.16;;;4.81;62.29
62600;BME280;48671;48.922;2.346;2023-01-28T11:56:34;102755.66;;;4.84;62.53
62600;BME280;48671;48.922;2.346;2023-01-28T12:07:36;102770.66;;;5.06;62.26
62600;BME280;48671;48.922;2.346;2023-01-28T12:10:37;102778.56;;;5.14;62.63
62600;BME280;48671;48.922;2.346;2023-01-28T12:13:24;102757.81;;;5.08;62.37
62600;BME280;48671;48.922;2.346;2023-01-28T12:19:02;102769.06;;;5.13;61.97
62600;BME280;48671;48.922;2.346;2023-01-28T12:21:47;102763.03;;;5.11;61.14
62600;BME280;48671;48.922;2.346;2023-01-28T12:24:29;102766.53;;;5.16;62.30
62600;BME280;48671;48.922;2.346;2023-01-28T12:30:04;102774.31;;;5.18;61.22
62600;BME280;48671;48.922;2.346;2023-01-28T12:32:41;102758.69;;;5.10;61.15
62600;BME280;48671;48.922;2.346;2023-01-28T12:38:14;102769.25;;;5.24;61.40
62600;BME280;48671;48.922;2.346;2023-01-28T12:41:00;102772.66;;;5.23;60.49
62600;BME280;48671;48.922;2.346;2023-01-28T12:49:46;102765.69;;;5.17;60.57
62600;BME280;48671;48.922;2.346;2023-01-28T12:52:33;102763.88;;;5.13;59.76
62600;BME280;48671;48.922;2.346;2023-01-28T12:55:39;102763.13;;;5.19;60.20
62600;BME280;48671;48.922;2.346;2023-01-28T12:58:12;102766.63;;;5.21;59.83
62600;BME280;48671;48.922;2.346;2023-01-28T13:00:45;102759.63;;;5.13;59.93
62600;BME280;48671;48.922;2.346;2023-01-28T13:06:01;102769.16;;;5.18;60.64
62600;BME280;48671;48.922;2.346;2023-01-28T13:08:30;102672.88;;;4.68;59.94
62600;BME280;48671;48.922;2.346;2023-01-28T13:10:57;102703.16;;;4.80;59.65
62600;BME280;48671;48.922;2.346;2023-01-28T13:13:31;102757.06;;;5.15;59.62
62600;BME280;48671;48.922;2.346;2023-01-28T13:15:57;102742.22;;;5.03;59.91
62600;BME280;48671;48.922;2.346;2023-01-28T13:24:02;102751.69;;;5.03;60.01
62600;BME280;48671;48.922;2.346;2023-01-28T13:31:41;102752.31;;;4.89;59.98
62600;BME280;48671;48.922;2.346;2023-01-28T13:34:25;102743.78;;;4.92;59.46
62600;BME280;48671;48.922;2.346;2023-01-28T13:36:52;102747.19;;;4.91;59.36
62600;BME280;48671;48.922;2.346;2023-01-28T13:39:23;102760.22;;;5.00;59.67
62600;BME280;48671;48.922;2.346;2023-01-28T13:41:52;102738.59;;;4.90;59.63
62600;BME280;48671;48.922;2.346;2023-01-28T13:47:10;102749.00;;;4.97;59.63
62600;BME280;48671;48.922;2.346;2023-01-28T13:54:40;102749.00;;;4.97;59.18
62600;BME280;48671;48.922;2.346;2023-01-28T14:05:19;102716.88;;;4.78;58.40
62600;BME280;48671;48.922;2.346;2023-01-28T14:11:15;102757.63;;;4.99;58.56
62600;BME280;48671;48.922;2.346;2023-01-28T14:16:40;102767.16;;;5.03;58.72
62600;BME280;48671;48.922;2.346;2023-01-28T14:19:11;102771.50;;;5.05;58.42
62600;BME280;48671;48.922;2.346;2023-01-28T14:21:38;102760.22;;;4.99;59.21
62600;BME280;48671;48.922;2.346;2023-01-28T14:24:03;102768.81;;;4.98;58.25
62600;BME280;48671;48.922;2.346;2023-01-28T14:31:35;102761.03;;;4.95;58.08
62600;BME280;48671;48.922;2.346;2023-01-28T14:34:25;102775.69;;;4.97;57.52
62600;BME280;48671;48.922;2.346;2023-01-28T14:36:58;102781.66;;;4.95;57.60
62600;BME280;48671;48.922;2.346;2023-01-28T14:39:27;102761.59;;;4.80;57.42
62600;BME280;48671;48.922;2.346;2023-01-28T14:41:55;102774.72;;;4.90;57.61
62600;BME280;48671;48.922;2.346;2023-01-28T14:44:26;102784.19;;;4.91;57.30
62600;BME280;48671;48.922;2.346;2023-01-28T14:57:57;102758.97;;;4.77;57.65
62600;BME280;48671;48.922;2.346;2023-01-28T15:00:32;102772.03;;;4.84;57.86
62600;BME280;48671;48.922;2.346;2023-01-28T15:02:57;102761.72;;;4.86;57.97
62600;BME280;48671;48.922;2.346;2023-01-28T15:05:25;102786.03;;;5.00;57.48
62600;BME280;48671;48.922;2.346;2023-01-28T15:07:51;102778.34;;;5.02;57.42
62600;BME280;48671;48.922;2.346;2023-01-28T15:10:20;102769.78;;;5.04;57.49
62600;BME280;48671;48.922;2.346;2023-01-28T15:13:09;102766.31;;;5.02;57.89
62600;BME280;48671;48.922;2.346;2023-01-28T15:15:39;102756.78;;;4.98;57.31